sensor_id;sensor_type;location;lat;lon;timestamp;P1;durP1;ratioP1;P2;durP2;ratioP2
7330;SDS011;3706;49.198;7.064;2024-02-26T00:00:11;0.50;;;0.50;;
7330;SDS011;3706;49.198;7.064;2024-02-26T00:02:44;0.60;;;0.60;;
7330;SDS011;3706;49.198;7.064;2024-02-26T00:05:11;0.60;;;0.60;;
7330;SDS011;3706;49.198;7.064;2024-02-26T00:07:38;3.43;;;0.80;;
7330;SDS011;3706;49.198;7.064;2024-02-26T00:10:06;1.37;;;0.60;;
7330;SDS011;3706;49.198;7.064;2024-02-26T00:12:35;0.60;;;0.60;;
7330;SDS011;3706;49.198;7.064;2024-02-26T00:15:04;1.40;;;1.00;;
7330;SDS011;3706;49.198;7.064;2024-02-26T00:17:31;2.30;;;0.90;;
7330;SDS011;3706;49.198;7.064;2024-02-26T00:19:58;0.80;;;0.70;;
7330;SDS011;3706;49.198;7.064;2024-02-26T00:22:25;0.70;;;0.70;;
7330;SDS011;3706;49.198;7.064;2024-02-26T00:24:59;0.83;;;0.70;;
7330;SDS011;3706;49.198;7.064;2024-02-26T00:27:27;0.90;;;0.73;;
7330;SDS011;3706;49.198;7.064;2024-02-26T00:29:55;0.93;;;0.83;;
7330;SDS011;3706;49.198;7.064;2024-02-26T00:32:22;0.63;;;0.57;;
7330;SDS011;3706;49.198;7.064;2024-02-26T00:34:49;1.13;;;0.70;;
7330;SDS011;3706;49.198;7.064;2024-02-26T00:37:16;0.80;;;0.63;;
7330;SDS011;3706;49.198;7.064;2024-02-26T00:39:43;1.20;;;1.00;;
7330;SDS011;3706;49.198;7.064;2024-02-26T00:42:11;3.83;;;0.80;;
7330;SDS011;3706;49.198;7.064;2024-02-26T00:44:38;0.60;;;0.60;;
7330;SDS011;3706;49.198;7.064;2024-02-26T00:47:09;0.90;;;0.70;;
7330;SDS011;3706;49.198;7.064;2024-02-26T00:49:36;1.77;;;0.90;;
7330;SDS011;3706;49.198;7.064;2024-02-26T00:52:04;0.93;;;0.87;;
7330;SDS011;3706;49.198;7.064;2024-02-26T00:54:31;3.00;;;1.00;;
7330;SDS011;3706;49.198;7.064;2024-02-26T00:56:58;1.37;;;0.70;;
7330;SDS011;3706;49.198;7.064;2024-02-26T00:59:25;0.63;;;0.63;;
7330;SDS011;3706;49.198;7.064;2024-02-26T01:01:52;1.43;;;0.90;;
7330;SDS011;3706;49.198;7.064;2024-02-26T01:04:21;0.80;;;0.60;;
7330;SDS011;3706;49.198;7.064;2024-02-26T01:06:48;0.80;;;0.80;;
7330;SDS011;3706;49.198;7.064;2024-02-26T01:09:14;1.27;;;1.00;;
7330;SDS011;3706;49.198;7.064;2024-02-26T01:11:43;0.83;;;0.83;;
7330;SDS011;3706;49.198;7.064;2024-02-26T01:14:10;2.27;;;0.90;;
7330;SDS011;3706;49.198;7.064;2024-02-26T01:16:37;3.60;;;1.27;;
7330;SDS011;3706;49.198;7.064;2024-02-26T01:19:04;0.90;;;0.80;;
7330;SDS011;3706;49.198;7.064;2024-02-26T01:21:32;1.47;;;0.93;;
7330;SDS011;3706;49.198;7.064;2024-02-26T01:23:59;0.73;;;0.60;;
7330;SDS011;3706;49.198;7.064;2024-02-26T01:26:27;0.53;;;0.53;;
7330;SDS011;3706;49.198;7.064;2024-02-26T01:28:54;2.30;;;1.40;;
7330;SDS011;3706;49.198;7.064;2024-02-26T01:31:21;2.80;;;1.40;;
7330;SDS011;3706;49.198;7.064;2024-02-26T01:33:48;0.87;;;0.87;;
7330;SDS011;3706;49.198;7.064;2024-02-26T01:36:15;1.20;;;1.03;;
7330;SDS011;3706;49.198;7.064;2024-02-26T01:38:43;3.83;;;1.73;;
7330;SDS011;3706;49.198;7.064;2024-02-26T01:41:10;2.97;;;0.80;;
7330;SDS011;3706;49.198;7.064;2024-02-26T01:43:39;1.20;;;0.63;;
7330;SDS011;3706;49.198;7.064;2024-02-26T01:46:06;1.53;;;0.90;;
7330;SDS011;3706;49.198;7.064;2024-02-26T01:48:40;1.20;;;0.87;;
7330;SDS011;3706;49.198;7.064;2024-02-26T01:51:07;1.10;;;1.00;;
7330;SDS011;3706;49.198;7.064;2024-02-26T01:53:34;0.57;;;0.57;;
7330;SDS011;3706;49.198;7.064;2024-02-26T01:56:03;1.10;;;0.70;;
7330;SDS011;3706;49.198;7.064;2024-02-26T01:58:31;1.00;;;0.87;;
7330;SDS011;3706;49.198;7.064;2024-02-26T02:00:59;0.80;;;0.80;;
7330;SDS011;3706;49.198;7.064;2024-02-26T02:03:27;1.53;;;1.10;;
7330;SDS011;3706;49.198;7.064;2024-02-26T02:05:54;1.43;;;0.87;;
7330;SDS011;3706;49.198;7.064;2024-02-26T02:08:22;1.03;;;0.90;;
7330;SDS011;3706;49.198;7.064;2024-02-26T02:10:49;1.20;;;0.90;;
7330;SDS011;3706;49.198;7.064;2024-02-26T02:13:21;1.40;;;0.53;;
7330;SDS011;3706;49.198;7.064;2024-02-26T02:15:48;1.23;;;0.70;;
7330;SDS011;3706;49.198;7.064;2024-02-26T02:18:15;0.97;;;0.77;;
7330;SDS011;3706;49.198;7.064;2024-02-26T02:20:44;1.03;;;0.80;;
7330;SDS011;3706;49.198;7.064;2024-02-26T02:23:11;0.80;;;0.80;;
7330;SDS011;3706;49.198;7.064;2024-02-26T02:25:37;3.07;;;0.90;;
7330;SDS011;3706;49.198;7.064;2024-02-26T02:28:05;0.70;;;0.70;;
7330;SDS011;3706;49.198;7.064;2024-02-26T02:30:32;0.70;;;0.60;;
7330;SDS011;3706;49.198;7.064;2024-02-26T02:33:01;0.63;;;0.63;;
7330;SDS011;3706;49.198;7.064;2024-02-26T02:35:31;1.17;;;0.80;;
7330;SDS011;3706;49.198;7.064;2024-02-26T02:37:59;1.30;;;0.97;;
7330;SDS011;3706;49.198;7.064;2024-02-26T02:40:26;1.77;;;1.30;;
7330;SDS011;3706;49.198;7.064;2024-02-26T02:42:53;0.73;;;0.57;;
7330;SDS011;3706;49.198;7.064;2024-02-26T02:45:20;0.50;;;0.50;;
7330;SDS011;3706;49.198;7.064;2024-02-26T02:47:47;1.13;;;0.93;;
7330;SDS011;3706;49.198;7.064;2024-02-26T02:50:15;0.90;;;0.80;;
7330;SDS011;3706;49.198;7.064;2024-02-26T02:52:42;0.87;;;0.50;;
7330;SDS011;3706;49.198;7.064;2024-02-26T02:55:10;0.70;;;0.60;;
7330;SDS011;3706;49.198;7.064;2024-02-26T02:57:37;0.90;;;0.80;;
7330;SDS011;3706;49.198;7.064;2024-02-26T03:00:06;1.40;;;1.30;;
7330;SDS011;3706;49.198;7.064;2024-02-26T03:02:34;1.23;;;1.13;;
7330;SDS011;3706;49.198;7.064;2024-02-26T03:05:01;0.67;;;0.63;;
7330;SDS011;3706;49.198;7.064;2024-02-26T03:07:29;0.83;;;0.70;;
7330;SDS011;3706;49.198;7.064;2024-02-26T03:09:56;0.63;;;0.60;;
7330;SDS011;3706;49.198;7.064;2024-02-26T03:12:24;1.13;;;0.83;;
7330;SDS011;3706;49.198;7.064;2024-02-26T03:14:52;2.50;;;0.90;;
7330;SDS011;3706;49.198;7.064;2024-02-26T03:17:20;1.00;;;0.90;;
7330;SDS011;3706;49.198;7.064;2024-02-26T03:19:52;1.23;;;1.13;;
7330;SDS011;3706;49.198;7.064;2024-02-26T03:22:22;1.40;;;0.97;;
7330;SDS011;3706;49.198;7.064;2024-02-26T03:24:49;1.10;;;1.00;;
7330;SDS011;3706;49.198;7.064;2024-02-26T03:27:16;3.63;;;1.30;;
7330;SDS011;3706;49.198;7.064;2024-02-26T03:29:45;1.37;;;1.03;;
7330;SDS011;3706;49.198;7.064;2024-02-26T03:32:13;0.80;;;0.80;;
7330;SDS011;3706;49.198;7.064;2024-02-26T03:34:40;1.37;;;0.80;;
7330;SDS011;3706;49.198;7.064;2024-02-26T03:37:07;1.20;;;1.10;;
7330;SDS011;3706;49.198;7.064;2024-02-26T03:39:35;1.00;;;0.87;;
7330;SDS011;3706;49.198;7.064;2024-02-26T03:42:03;1.27;;;0.70;;
7330;SDS011;3706;49.198;7.064;2024-02-26T03:44:30;2.00;;;1.27;;
7330;SDS011;3706;49.198;7.064;2024-02-26T03:46:58;1.80;;;1.03;;
7330;SDS011;3706;49.198;7.064;2024-02-26T03:49:25;1.13;;;1.00;;
7330;SDS011;3706;49.198;7.064;2024-02-26T03:51:52;1.47;;;1.03;;
7330;SDS011;3706;49.198;7.064;2024-02-26T03:54:22;2.17;;;1.20;;
7330;SDS011;3706;49.198;7.064;2024-02-26T03:56:49;1.27;;;1.13;;
7330;SDS011;3706;49.198;7.064;2024-02-26T03:59:16;1.20;;;1.00;;
7330;SDS011;3706;49.198;7.064;2024-02-26T04:01:44;1.23;;;1.13;;
7330;SDS011;3706;49.198;7.064;2024-02-26T04:04:14;3.47;;;1.93;;
7330;SDS011;3706;49.198;7.064;2024-02-26T04:06:43;1.70;;;1.30;;
7330;SDS011;3706;49.198;7.064;2024-02-26T04:09:10;1.83;;;1.40;;
7330;SDS011;3706;49.198;7.064;2024-02-26T04:11:37;1.40;;;1.03;;
7330;SDS011;3706;49.198;7.064;2024-02-26T04:14:04;1.20;;;1.10;;
7330;SDS011;3706;49.198;7.064;2024-02-26T04:16:33;3.30;;;1.40;;
7330;SDS011;3706;49.198;7.064;2024-02-26T04:19:00;1.27;;;0.97;;
7330;SDS011;3706;49.198;7.064;2024-02-26T04:21:29;1.43;;;1.13;;
7330;SDS011;3706;49.198;7.064;2024-02-26T04:23:56;1.63;;;0.93;;
7330;SDS011;3706;49.198;7.064;2024-02-26T04:26:26;1.37;;;1.07;;
7330;SDS011;3706;49.198;7.064;2024-02-26T04:28:53;1.97;;;1.13;;
7330;SDS011;3706;49.198;7.064;2024-02-26T04:31:20;1.30;;;1.03;;
7330;SDS011;3706;49.198;7.064;2024-02-26T04:33:47;1.40;;;1.13;;
7330;SDS011;3706;49.198;7.064;2024-02-26T04:36:14;1.20;;;1.10;;
7330;SDS011;3706;49.198;7.064;2024-02-26T04:38:43;1.87;;;1.10;;
7330;SDS011;3706;49.198;7.064;2024-02-26T04:41:10;1.30;;;1.00;;
7330;SDS011;3706;49.198;7.064;2024-02-26T04:43:39;2.97;;;1.70;;
7330;SDS011;3706;49.198;7.064;2024-02-26T04:46:06;1.63;;;1.40;;
7330;SDS011;3706;49.198;7.064;2024-02-26T04:48:34;4.47;;;1.17;;
7330;SDS011;3706;49.198;7.064;2024-02-26T04:51:01;1.30;;;1.13;;
7330;SDS011;3706;49.198;7.064;2024-02-26T04:53:28;1.73;;;1.00;;
7330;SDS011;3706;49.198;7.064;2024-02-26T04:55:58;1.87;;;1.30;;
7330;SDS011;3706;49.198;7.064;2024-02-26T04:58:25;0.80;;;0.80;;
7330;SDS011;3706;49.198;7.064;2024-02-26T05:00:52;1.13;;;0.83;;
7330;SDS011;3706;49.198;7.064;2024-02-26T05:03:19;2.00;;;1.00;;
7330;SDS011;3706;49.198;7.064;2024-02-26T05:05:46;0.87;;;0.80;;
7330;SDS011;3706;49.198;7.064;2024-02-26T05:08:13;0.93;;;0.90;;
7330;SDS011;3706;49.198;7.064;2024-02-26T05:10:40;0.60;;;0.60;;
7330;SDS011;3706;49.198;7.064;2024-02-26T05:13:09;0.70;;;0.70;;
7330;SDS011;3706;49.198;7.064;2024-02-26T05:15:36;1.50;;;0.50;;
7330;SDS011;3706;49.198;7.064;2024-02-26T05:18:04;0.60;;;0.60;;
7330;SDS011;3706;49.198;7.064;2024-02-26T05:20:35;0.70;;;0.60;;
7330;SDS011;3706;49.198;7.064;2024-02-26T05:23:09;0.70;;;0.60;;
7330;SDS011;3706;49.198;7.064;2024-02-26T05:25:36;0.90;;;0.80;;
7330;SDS011;3706;49.198;7.064;2024-02-26T05:28:05;0.50;;;0.50;;
7330;SDS011;3706;49.198;7.064;2024-02-26T05:30:33;2.13;;;0.73;;
7330;SDS011;3706;49.198;7.064;2024-02-26T05:33:00;0.40;;;0.40;;
7330;SDS011;3706;49.198;7.064;2024-02-26T05:35:27;1.50;;;0.70;;
7330;SDS011;3706;49.198;7.064;2024-02-26T05:37:54;1.30;;;0.90;;
7330;SDS011;3706;49.198;7.064;2024-02-26T05:40:21;1.07;;;0.90;;
7330;SDS011;3706;49.198;7.064;2024-02-26T05:42:48;0.70;;;0.70;;
7330;SDS011;3706;49.198;7.064;2024-02-26T05:45:15;0.80;;;0.80;;
7330;SDS011;3706;49.198;7.064;2024-02-26T05:47:43;1.83;;;1.10;;
7330;SDS011;3706;49.198;7.064;2024-02-26T05:50:10;0.90;;;0.77;;
7330;SDS011;3706;49.198;7.064;2024-02-26T05:52:40;2.17;;;0.70;;
7330;SDS011;3706;49.198;7.064;2024-02-26T05:55:08;0.97;;;0.87;;
7330;SDS011;3706;49.198;7.064;2024-02-26T05:57:36;1.17;;;1.07;;
7330;SDS011;3706;49.198;7.064;2024-02-26T06:00:03;1.00;;;0.90;;
7330;SDS011;3706;49.198;7.064;2024-02-26T06:02:31;0.70;;;0.70;;
7330;SDS011;3706;49.198;7.064;2024-02-26T06:05:00;1.37;;;1.00;;
7330;SDS011;3706;49.198;7.064;2024-02-26T06:07:27;0.73;;;0.73;;
7330;SDS011;3706;49.198;7.064;2024-02-26T06:09:54;0.70;;;0.60;;
7330;SDS011;3706;49.198;7.064;2024-02-26T06:12:21;0.60;;;0.60;;
7330;SDS011;3706;49.198;7.064;2024-02-26T06:14:48;1.50;;;1.40;;
7330;SDS011;3706;49.198;7.064;2024-02-26T06:17:15;0.93;;;0.77;;
7330;SDS011;3706;49.198;7.064;2024-02-26T06:19:45;0.70;;;0.70;;
7330;SDS011;3706;49.198;7.064;2024-02-26T06:22:13;2.27;;;1.40;;
7330;SDS011;3706;49.198;7.064;2024-02-26T06:24:42;0.87;;;0.70;;
7330;SDS011;3706;49.198;7.064;2024-02-26T06:27:09;2.80;;;1.20;;
7330;SDS011;3706;49.198;7.064;2024-02-26T06:29:36;1.00;;;0.83;;
7330;SDS011;3706;49.198;7.064;2024-02-26T06:32:03;1.00;;;0.90;;
7330;SDS011;3706;49.198;7.064;2024-02-26T06:34:30;1.17;;;1.03;;
7330;SDS011;3706;49.198;7.064;2024-02-26T06:36:57;1.20;;;0.93;;
7330;SDS011;3706;49.198;7.064;2024-02-26T06:39:26;1.40;;;1.10;;
7330;SDS011;3706;49.198;7.064;2024-02-26T06:41:58;1.27;;;1.03;;
7330;SDS011;3706;49.198;7.064;2024-02-26T06:44:26;1.70;;;1.03;;
7330;SDS011;3706;49.198;7.064;2024-02-26T06:46:57;1.00;;;0.90;;
7330;SDS011;3706;49.198;7.064;2024-02-26T06:49:24;1.00;;;0.90;;
7330;SDS011;3706;49.198;7.064;2024-02-26T06:51:51;1.60;;;1.20;;
7330;SDS011;3706;49.198;7.064;2024-02-26T06:54:18;1.10;;;0.97;;
7330;SDS011;3706;49.198;7.064;2024-02-26T06:56:47;1.47;;;0.90;;
7330;SDS011;3706;49.198;7.064;2024-02-26T06:59:14;3.33;;;0.83;;
7330;SDS011;3706;49.198;7.064;2024-02-26T07:01:47;1.83;;;1.40;;
7330;SDS011;3706;49.198;7.064;2024-02-26T07:04:14;2.63;;;1.30;;
7330;SDS011;3706;49.198;7.064;2024-02-26T07:06:42;3.40;;;1.10;;
7330;SDS011;3706;49.198;7.064;2024-02-26T07:09:11;1.60;;;1.20;;
7330;SDS011;3706;49.198;7.064;2024-02-26T07:11:38;1.40;;;1.20;;
7330;SDS011;3706;49.198;7.064;2024-02-26T07:14:08;3.07;;;1.30;;
7330;SDS011;3706;49.198;7.064;2024-02-26T07:16:35;1.43;;;1.20;;
7330;SDS011;3706;49.198;7.064;2024-02-26T07:19:02;1.03;;;0.90;;
7330;SDS011;3706;49.198;7.064;2024-02-26T07:21:32;1.60;;;1.33;;
7330;SDS011;3706;49.198;7.064;2024-02-26T07:24:01;1.30;;;0.93;;
7330;SDS011;3706;49.198;7.064;2024-02-26T07:26:28;1.33;;;1.10;;
7330;SDS011;3706;49.198;7.064;2024-02-26T07:28:56;1.67;;;1.40;;
7330;SDS011;3706;49.198;7.064;2024-02-26T07:31:24;1.47;;;1.17;;
7330;SDS011;3706;49.198;7.064;2024-02-26T07:33:51;2.47;;;1.60;;
7330;SDS011;3706;49.198;7.064;2024-02-26T07:36:18;1.53;;;1.37;;
7330;SDS011;3706;49.198;7.064;2024-02-26T07:38:45;2.30;;;1.50;;
7330;SDS011;3706;49.198;7.064;2024-02-26T07:41:12;1.83;;;1.70;;
7330;SDS011;3706;49.198;7.064;2024-02-26T07:44:01;1.77;;;1.43;;
7330;SDS011;3706;49.198;7.064;2024-02-26T07:46:29;1.97;;;1.40;;
7330;SDS011;3706;49.198;7.064;2024-02-26T07:48:56;1.80;;;1.30;;
7330;SDS011;3706;49.198;7.064;2024-02-26T07:51:23;1.63;;;1.33;;
7330;SDS011;3706;49.198;7.064;2024-02-26T07:53:50;2.17;;;1.50;;
7330;SDS011;3706;49.198;7.064;2024-02-26T07:56:21;3.70;;;1.93;;
7330;SDS011;3706;49.198;7.064;2024-02-26T07:58:55;2.50;;;1.37;;
7330;SDS011;3706;49.198;7.064;2024-02-26T08:01:33;2.10;;;1.70;;
7330;SDS011;3706;49.198;7.064;2024-02-26T08:04:00;2.60;;;1.47;;
7330;SDS011;3706;49.198;7.064;2024-02-26T08:09:35;2.53;;;2.00;;
7330;SDS011;3706;49.198;7.064;2024-02-26T08:13:21;2.43;;;1.70;;
7330;SDS011;3706;49.198;7.064;2024-02-26T08:23:11;2.03;;;1.53;;
7330;SDS011;3706;49.198;7.064;2024-02-26T08:28:32;2.17;;;1.73;;
7330;SDS011;3706;49.198;7.064;2024-02-26T08:30:59;1.20;;;1.10;;
7330;SDS011;3706;49.198;7.064;2024-02-26T08:39:26;1.67;;;1.40;;
7330;SDS011;3706;49.198;7.064;2024-02-26T08:42:06;1.20;;;1.10;;
7330;SDS011;3706;49.198;7.064;2024-02-26T08:45:59;2.27;;;1.00;;
7330;SDS011;3706;49.198;7.064;2024-02-26T08:55:35;1.23;;;1.00;;
7330;SDS011;3706;49.198;7.064;2024-02-26T08:58:26;1.30;;;1.17;;
7330;SDS011;3706;49.198;7.064;2024-02-26T09:04:38;1.27;;;1.10;;
7330;SDS011;3706;49.198;7.064;2024-02-26T09:14:19;1.37;;;1.20;;
7330;SDS011;3706;49.198;7.064;2024-02-26T09:17:06;1.03;;;0.90;;
7330;SDS011;3706;49.198;7.064;2024-02-26T09:23:04;1.40;;;1.20;;
7330;SDS011;3706;49.198;7.064;2024-02-26T09:25:58;1.83;;;1.30;;
7330;SDS011;3706;49.198;7.064;2024-02-26T09:31:40;1.27;;;1.13;;
7330;SDS011;3706;49.198;7.064;2024-02-26T09:34:30;1.30;;;1.00;;
7330;SDS011;3706;49.198;7.064;2024-02-26T09:36:58;1.20;;;1.10;;
7330;SDS011;3706;49.198;7.064;2024-02-26T09:39:26;1.23;;;1.10;;
7330;SDS011;3706;49.198;7.064;2024-02-26T09:42:17;1.20;;;1.07;;
7330;SDS011;3706;49.198;7.064;2024-02-26T09:51:38;1.47;;;1.13;;
7330;SDS011;3706;49.198;7.064;2024-02-26T09:59:21;2.30;;;1.27;;
7330;SDS011;3706;49.198;7.064;2024-02-26T10:01:26;1.07;;;0.97;;
7330;SDS011;3706;49.198;7.064;2024-02-26T10:04:28;0.83;;;0.83;;
7330;SDS011;3706;49.198;7.064;2024-02-26T10:07:19;0.90;;;0.90;;
7330;SDS011;3706;49.198;7.064;2024-02-26T10:10:19;1.63;;;1.40;;
7330;SDS011;3706;49.198;7.064;2024-02-26T10:13:30;1.53;;;0.90;;
7330;SDS011;3706;49.198;7.064;2024-02-26T10:16:34;1.30;;;1.00;;
7330;SDS011;3706;49.198;7.064;2024-02-26T10:19:01;1.33;;;1.20;;
7330;SDS011;3706;49.198;7.064;2024-02-26T10:21:35;1.00;;;0.90;;
7330;SDS011;3706;49.198;7.064;2024-02-26T10:34:43;0.70;;;0.70;;
7330;SDS011;3706;49.198;7.064;2024-02-26T10:37:14;0.97;;;0.83;;
7330;SDS011;3706;49.198;7.064;2024-02-26T10:43:07;1.17;;;0.87;;
7330;SDS011;3706;49.198;7.064;2024-02-26T10:45:34;1.03;;;0.80;;
7330;SDS011;3706;49.198;7.064;2024-02-26T10:48:02;1.33;;;0.90;;
7330;SDS011;3706;49.198;7.064;2024-02-26T10:50:37;0.83;;;0.83;;
7330;SDS011;3706;49.198;7.064;2024-02-26T11:03:06;1.57;;;0.80;;
7330;SDS011;3706;49.198;7.064;2024-02-26T11:14:25;0.57;;;0.50;;
7330;SDS011;3706;49.198;7.064;2024-02-26T11:21:12;1.47;;;0.87;;
7330;SDS011;3706;49.198;7.064;2024-02-26T11:24:05;0.77;;;0.73;;
7330;SDS011;3706;49.198;7.064;2024-02-26T11:27:11;0.70;;;0.70;;
7330;SDS011;3706;49.198;7.064;2024-02-26T11:29:41;0.80;;;0.70;;
7330;SDS011;3706;49.198;7.064;2024-02-26T11:32:13;0.50;;;0.50;;
7330;SDS011;3706;49.198;7.064;2024-02-26T11:34:51;0.83;;;0.70;;
7330;SDS011;3706;49.198;7.064;2024-02-26T11:41:29;1.30;;;0.70;;
7330;SDS011;3706;49.198;7.064;2024-02-26T11:44:07;1.67;;;0.80;;
7330;SDS011;3706;49.198;7.064;2024-02-26T11:46:39;0.57;;;0.57;;
7330;SDS011;3706;49.198;7.064;2024-02-26T11:52:02;0.63;;;0.53;;
7330;SDS011;3706;49.198;7.064;2024-02-26T11:54:38;0.50;;;0.50;;
7330;SDS011;3706;49.198;7.064;2024-02-26T11:57:19;0.60;;;0.57;;
7330;SDS011;3706;49.198;7.064;2024-02-26T11:59:50;0.70;;;0.70;;
7330;SDS011;3706;49.198;7.064;2024-02-26T12:05:11;2.07;;;1.80;;
7330;SDS011;3706;49.198;7.064;2024-02-26T12:07:42;0.90;;;0.80;;
7330;SDS011;3706;49.198;7.064;2024-02-26T12:10:56;0.50;;;0.50;;
7330;SDS011;3706;49.198;7.064;2024-02-26T12:13:54;1.20;;;1.10;;
7330;SDS011;3706;49.198;7.064;2024-02-26T12:16:34;0.77;;;0.63;;
7330;SDS011;3706;49.198;7.064;2024-02-26T12:19:05;1.57;;;0.80;;
7330;SDS011;3706;49.198;7.064;2024-02-26T12:21:58;2.03;;;0.80;;
7330;SDS011;3706;49.198;7.064;2024-02-26T12:29:39;0.47;;;0.43;;
7330;SDS011;3706;49.198;7.064;2024-02-26T12:31:37;0.50;;;0.50;;
7330;SDS011;3706;49.198;7.064;2024-02-26T12:34:07;0.40;;;0.37;;
7330;SDS011;3706;49.198;7.064;2024-02-26T12:36:36;1.43;;;0.37;;
7330;SDS011;3706;49.198;7.064;2024-02-26T12:39:03;0.60;;;0.60;;
7330;SDS011;3706;49.198;7.064;2024-02-26T12:41:32;0.30;;;0.30;;
7330;SDS011;3706;49.198;7.064;2024-02-26T12:43:59;1.00;;;0.33;;
7330;SDS011;3706;49.198;7.064;2024-02-26T12:46:28;0.60;;;0.60;;
7330;SDS011;3706;49.198;7.064;2024-02-26T12:48:56;2.53;;;1.30;;
7330;SDS011;3706;49.198;7.064;2024-02-26T12:51:26;2.57;;;1.40;;
7330;SDS011;3706;49.198;7.064;2024-02-26T12:53:57;0.57;;;0.57;;
7330;SDS011;3706;49.198;7.064;2024-02-26T12:56:24;0.83;;;0.83;;
7330;SDS011;3706;49.198;7.064;2024-02-26T12:58:53;2.50;;;0.70;;
7330;SDS011;3706;49.198;7.064;2024-02-26T13:01:22;0.50;;;0.50;;
7330;SDS011;3706;49.198;7.064;2024-02-26T13:03:51;1.30;;;0.90;;
7330;SDS011;3706;49.198;7.064;2024-02-26T13:06:20;0.83;;;0.57;;
7330;SDS011;3706;49.198;7.064;2024-02-26T13:08:49;1.50;;;0.83;;
7330;SDS011;3706;49.198;7.064;2024-02-26T13:11:23;1.43;;;0.77;;
7330;SDS011;3706;49.198;7.064;2024-02-26T13:13:50;0.70;;;0.70;;
7330;SDS011;3706;49.198;7.064;2024-02-26T13:16:17;1.00;;;0.57;;
7330;SDS011;3706;49.198;7.064;2024-02-26T13:18:44;0.53;;;0.53;;
7330;SDS011;3706;49.198;7.064;2024-02-26T13:21:12;2.10;;;0.63;;
7330;SDS011;3706;49.198;7.064;2024-02-26T13:23:48;1.80;;;0.70;;
7330;SDS011;3706;49.198;7.064;2024-02-26T13:26:21;0.87;;;0.60;;
7330;SDS011;3706;49.198;7.064;2024-02-26T13:28:58;0.63;;;0.57;;
7330;SDS011;3706;49.198;7.064;2024-02-26T13:31:26;1.10;;;0.90;;
7330;SDS011;3706;49.198;7.064;2024-02-26T13:33:53;0.90;;;0.77;;
7330;SDS011;3706;49.198;7.064;2024-02-26T13:36:21;2.40;;;1.90;;
7330;SDS011;3706;49.198;7.064;2024-02-26T13:38:52;1.63;;;1.30;;
7330;SDS011;3706;49.198;7.064;2024-02-26T13:41:20;1.00;;;0.70;;
7330;SDS011;3706;49.198;7.064;2024-02-26T13:43:50;0.63;;;0.60;;
7330;SDS011;3706;49.198;7.064;2024-02-26T13:46:17;0.70;;;0.67;;
7330;SDS011;3706;49.198;7.064;2024-02-26T13:48:44;0.90;;;0.80;;
7330;SDS011;3706;49.198;7.064;2024-02-26T13:51:11;2.00;;;0.53;;
7330;SDS011;3706;49.198;7.064;2024-02-26T13:53:38;1.03;;;0.77;;
7330;SDS011;3706;49.198;7.064;2024-02-26T13:56:07;0.40;;;0.40;;
7330;SDS011;3706;49.198;7.064;2024-02-26T13:58:36;0.43;;;0.40;;
7330;SDS011;3706;49.198;7.064;2024-02-26T14:01:03;0.60;;;0.50;;
7330;SDS011;3706;49.198;7.064;2024-02-26T14:03:30;1.70;;;0.80;;
7330;SDS011;3706;49.198;7.064;2024-02-26T14:05:57;1.17;;;0.53;;
7330;SDS011;3706;49.198;7.064;2024-02-26T14:08:24;1.80;;;0.60;;
7330;SDS011;3706;49.198;7.064;2024-02-26T14:10:51;0.40;;;0.40;;
7330;SDS011;3706;49.198;7.064;2024-02-26T14:13:19;1.10;;;0.60;;
7330;SDS011;3706;49.198;7.064;2024-02-26T14:15:46;2.20;;;0.80;;
7330;SDS011;3706;49.198;7.064;2024-02-26T14:18:13;0.77;;;0.40;;
7330;SDS011;3706;49.198;7.064;2024-02-26T14:20:40;0.77;;;0.57;;
7330;SDS011;3706;49.198;7.064;2024-02-26T14:23:07;0.30;;;0.30;;
7330;SDS011;3706;49.198;7.064;2024-02-26T14:25:34;0.63;;;0.47;;
7330;SDS011;3706;49.198;7.064;2024-02-26T14:28:05;2.07;;;0.60;;
7330;SDS011;3706;49.198;7.064;2024-02-26T14:30:38;1.70;;;1.40;;
7330;SDS011;3706;49.198;7.064;2024-02-26T14:33:09;2.33;;;1.00;;
7330;SDS011;3706;49.198;7.064;2024-02-26T14:35:36;3.87;;;0.93;;
7330;SDS011;3706;49.198;7.064;2024-02-26T14:38:03;12.47;;;6.30;;
7330;SDS011;3706;49.198;7.064;2024-02-26T14:40:30;1.37;;;1.00;;
7330;SDS011;3706;49.198;7.064;2024-02-26T14:42:57;11.53;;;4.63;;
7330;SDS011;3706;49.198;7.064;2024-02-26T14:45:25;8.93;;;4.07;;
7330;SDS011;3706;49.198;7.064;2024-02-26T14:47:53;9.50;;;5.23;;
7330;SDS011;3706;49.198;7.064;2024-02-26T14:50:20;3.63;;;2.60;;
7330;SDS011;3706;49.198;7.064;2024-02-26T14:52:47;0.83;;;0.77;;
7330;SDS011;3706;49.198;7.064;2024-02-26T14:55:14;2.50;;;1.23;;
7330;SDS011;3706;49.198;7.064;2024-02-26T14:57:41;1.40;;;1.00;;
7330;SDS011;3706;49.198;7.064;2024-02-26T15:29:42;1.10;;;0.90;;
7330;SDS011;3706;49.198;7.064;2024-02-26T15:32:09;1.40;;;1.30;;
7330;SDS011;3706;49.198;7.064;2024-02-26T15:34:36;1.27;;;1.00;;
7330;SDS011;3706;49.198;7.064;2024-02-26T15:37:04;0.87;;;0.80;;
7330;SDS011;3706;49.198;7.064;2024-02-26T15:39:34;0.97;;;0.80;;
7330;SDS011;3706;49.198;7.064;2024-02-26T15:42:03;1.27;;;0.83;;
7330;SDS011;3706;49.198;7.064;2024-02-26T15:44:30;1.20;;;1.03;;
7330;SDS011;3706;49.198;7.064;2024-02-26T15:46:57;1.70;;;1.27;;
7330;SDS011;3706;49.198;7.064;2024-02-26T15:49:27;1.67;;;1.20;;
7330;SDS011;3706;49.198;7.064;2024-02-26T15:51:53;0.97;;;0.87;;
7330;SDS011;3706;49.198;7.064;2024-02-26T15:54:21;1.10;;;1.00;;
7330;SDS011;3706;49.198;7.064;2024-02-26T15:56:48;0.83;;;0.83;;
7330;SDS011;3706;49.198;7.064;2024-02-26T15:59:17;1.33;;;1.10;;
7330;SDS011;3706;49.198;7.064;2024-02-26T16:01:44;2.77;;;1.00;;
7330;SDS011;3706;49.198;7.064;2024-02-26T16:04:12;1.43;;;0.90;;
7330;SDS011;3706;49.198;7.064;2024-02-26T16:06:41;3.47;;;1.37;;
7330;SDS011;3706;49.198;7.064;2024-02-26T16:09:11;0.97;;;0.97;;
7330;SDS011;3706;49.198;7.064;2024-02-26T16:11:38;2.20;;;1.50;;
7330;SDS011;3706;49.198;7.064;2024-02-26T16:14:09;1.03;;;0.93;;
7330;SDS011;3706;49.198;7.064;2024-02-26T16:16:44;1.00;;;0.90;;
7330;SDS011;3706;49.198;7.064;2024-02-26T16:19:16;1.77;;;1.20;;
7330;SDS011;3706;49.198;7.064;2024-02-26T16:21:44;2.67;;;1.33;;
7330;SDS011;3706;49.198;7.064;2024-02-26T16:24:11;2.07;;;1.30;;
7330;SDS011;3706;49.198;7.064;2024-02-26T16:26:38;2.83;;;1.40;;
7330;SDS011;3706;49.198;7.064;2024-02-26T16:29:05;1.53;;;1.23;;
7330;SDS011;3706;49.198;7.064;2024-02-26T16:31:32;2.57;;;1.50;;
7330;SDS011;3706;49.198;7.064;2024-02-26T16:34:00;2.40;;;1.43;;
7330;SDS011;3706;49.198;7.064;2024-02-26T16:36:27;1.67;;;1.50;;
7330;SDS011;3706;49.198;7.064;2024-02-26T16:38:54;1.20;;;1.10;;
7330;SDS011;3706;49.198;7.064;2024-02-26T16:41:21;1.63;;;1.10;;
7330;SDS011;3706;49.198;7.064;2024-02-26T16:43:50;2.20;;;1.63;;
7330;SDS011;3706;49.198;7.064;2024-02-26T16:49:08;3.10;;;1.70;;
7330;SDS011;3706;49.198;7.064;2024-02-26T16:51:36;2.00;;;1.60;;
7330;SDS011;3706;49.198;7.064;2024-02-26T16:54:04;4.60;;;1.97;;
7330;SDS011;3706;49.198;7.064;2024-02-26T16:56:31;2.87;;;1.57;;
7330;SDS011;3706;49.198;7.064;2024-02-26T16:58:58;4.27;;;1.87;;
7330;SDS011;3706;49.198;7.064;2024-02-26T17:01:25;2.50;;;2.07;;
7330;SDS011;3706;49.198;7.064;2024-02-26T17:03:52;2.97;;;2.10;;
7330;SDS011;3706;49.198;7.064;2024-02-26T17:06:20;2.03;;;1.63;;
7330;SDS011;3706;49.198;7.064;2024-02-26T17:08:49;3.40;;;2.03;;
7330;SDS011;3706;49.198;7.064;2024-02-26T17:11:17;3.97;;;2.33;;
7330;SDS011;3706;49.198;7.064;2024-02-26T17:13:45;2.27;;;1.80;;
7330;SDS011;3706;49.198;7.064;2024-02-26T17:16:12;3.83;;;2.13;;
7330;SDS011;3706;49.198;7.064;2024-02-26T17:18:39;2.43;;;2.07;;
7330;SDS011;3706;49.198;7.064;2024-02-26T17:21:06;2.63;;;2.30;;
7330;SDS011;3706;49.198;7.064;2024-02-26T17:23:35;3.60;;;2.17;;
7330;SDS011;3706;49.198;7.064;2024-02-26T17:26:02;3.03;;;2.37;;
7330;SDS011;3706;49.198;7.064;2024-02-26T17:28:31;3.23;;;2.50;;
7330;SDS011;3706;49.198;7.064;2024-02-26T17:31:00;3.20;;;2.57;;
7330;SDS011;3706;49.198;7.064;2024-02-26T17:33:26;4.87;;;2.73;;
7330;SDS011;3706;49.198;7.064;2024-02-26T17:35:53;3.13;;;2.60;;
7330;SDS011;3706;49.198;7.064;2024-02-26T17:38:20;3.77;;;2.50;;
7330;SDS011;3706;49.198;7.064;2024-02-26T17:40:49;3.60;;;2.90;;
7330;SDS011;3706;49.198;7.064;2024-02-26T17:43:16;3.03;;;2.73;;
7330;SDS011;3706;49.198;7.064;2024-02-26T17:45:43;3.47;;;2.70;;
7330;SDS011;3706;49.198;7.064;2024-02-26T17:48:11;3.57;;;2.67;;
7330;SDS011;3706;49.198;7.064;2024-02-26T17:50:38;3.57;;;3.17;;